Time;durP1;ratioP1;P1;durP2;ratioP2;P2;SDS_P1;SDS_P2;PMS_P1;PMS_P2;Temp;Humidity;BMP_temperature;BMP_pressure;BME280_temperature;BME280_humidity;BME280_pressure;Samples;Min_cycle;Max_cycle;Signal;HPM_P1;HPM_P2
2021/08/28 00:00:10;;;;;;;3.25;1.80;;;;;;;15.10;100.00;100510.72;5035369;28;20096;-70
2021/08/28 00:02:54;;;;;;;4.65;1.80;;;;;;;15.05;100.00;100510.38;5036332;28;20068;-70
2021/08/28 00:05:37;;;;;;;4.13;1.60;;;;;;;15.02;100.00;100514.22;5035823;28;20056;-71
2021/08/28 00:08:21;;;;;;;2.83;1.83;;;;;;;15.01;100.00;100506.34;5021784;28;20155;-71
2021/08/28 00:11:05;;;;;;;4.15;1.92;;;;;;;15.00;100.00;100515.41;5035147;28;20136;-71
2021/08/28 00:13:49;;;;;;;6.10;1.85;;;;;;;15.03;100.00;100512.41;5035031;28;20072;-71
2021/08/28 00:16:33;;;;;;;3.45;1.95;;;;;;;14.97;100.00;100507.69;5035404;28;20068;-71
2021/08/28 00:19:17;;;;;;;4.18;1.77;;;;;;;15.03;100.00;100505.19;5021103;28;20053;-71
2021/08/28 00:22:01;;;;;;;6.13;1.90;;;;;;;15.02;100.00;100497.28;5035147;28;20129;-71
2021/08/28 00:24:44;;;;;;;6.82;1.83;;;;;;;14.98;100.00;100504.84;5034992;28;20045;-71
2021/08/28 00:27:28;;;;;;;2.00;1.60;;;;;;;14.93;100.00;100498.28;5034894;28;20052;-70
2021/08/28 00:30:13;;;;;;;3.17;1.80;;;;;;;14.91;100.00;100495.75;5035432;28;20471;-71
2021/08/28 00:32:57;;;;;;;5.35;2.13;;;;;;;14.91;100.00;100494.94;5034905;28;20047;-70
2021/08/28 00:35:41;;;;;;;8.13;2.17;;;;;;;14.94;100.00;100491.91;5020856;28;20522;-70
2021/08/28 00:38:25;;;;;;;4.75;2.28;;;;;;;14.87;100.00;100498.94;5034838;28;20067;-70
2021/08/28 00:41:09;;;;;;;4.40;1.60;;;;;;;14.85;100.00;100490.22;5020916;28;20051;-70
2021/08/28 00:43:54;;;;;;;5.35;2.08;;;;;;;14.85;100.00;100500.97;5034517;28;20124;-71
2021/08/28 00:46:38;;;;;;;6.13;2.20;;;;;;;14.85;100.00;100514.38;5035550;28;20084;-71
2021/08/28 00:49:23;;;;;;;5.25;1.67;;;;;;;14.83;100.00;100502.97;5034879;28;20439;-71
2021/08/28 00:52:07;;;;;;;5.38;1.92;;;;;;;14.92;100.00;100507.34;5034668;28;20063;-70
2021/08/28 00:54:51;;;;;;;4.38;1.95;;;;;;;14.95;100.00;100499.81;5020742;28;20111;-70
2021/08/28 00:57:35;;;;;;;5.07;2.00;;;;;;;14.92;100.00;100505.50;5020581;28;20106;-70
2021/08/28 01:00:19;;;;;;;3.85;1.83;;;;;;;14.86;100.00;100510.69;5034444;28;20049;-71
2021/08/28 01:03:05;;;;;;;4.07;1.90;;;;;;;14.92;100.00;100510.03;5034624;28;20079;-70
2021/08/28 01:05:55;;;;;;;4.22;1.90;;;;;;;14.88;100.00;100501.47;5020199;28;20072;-70
2021/08/28 01:08:45;;;;;;;3.83;2.20;;;;;;;14.91;100.00;100513.72;5034296;28;20076;-70
2021/08/28 01:11:41;;;;;;;4.85;1.90;;;;;;;14.88;100.00;100514.06;5034328;28;20127;-71
2021/08/28 01:14:27;;;;;;;3.33;2.22;;;;;;;14.94;100.00;100510.69;5020160;28;20569;-71
2021/08/28 01:17:13;;;;;;;4.68;2.10;;;;;;;14.92;100.00;100508.16;5020069;28;20049;-71
2021/08/28 01:20:09;;;;;;;5.03;2.58;;;;;;;14.95;100.00;100496.28;5020190;28;20108;-71
2021/08/28 01:22:54;;;;;;;2.75;2.10;;;;;;;15.03;100.00;100488.22;5033997;28;20068;-70
2021/08/28 01:25:39;;;;;;;4.68;2.90;;;;;;;15.00;100.00;100488.56;5020353;28;20102;-71
2021/08/28 01:28:23;;;;;;;6.85;2.22;;;;;;;14.98;100.00;100495.97;5019779;28;20064;-70
2021/08/28 01:31:09;;;;;;;3.08;2.38;;;;;;;14.96;100.00;100498.81;5034031;28;20454;-71
2021/08/28 01:33:53;;;;;;;6.32;2.17;;;;;;;14.98;100.00;100501.34;5019955;28;20064;-71
2021/08/28 01:36:37;;;;;;;3.35;2.28;;;;;;;15.00;100.00;100502.81;5033686;28;20408;-71
2021/08/28 01:39:22;;;;;;;3.95;2.28;;;;;;;15.07;100.00;100500.31;5019727;28;20096;-71
2021/08/28 01:42:06;;;;;;;5.75;2.38;;;;;;;15.02;100.00;100491.94;5033419;28;20068;-71
2021/08/28 01:44:52;;;;;;;4.45;2.35;;;;;;;14.99;100.00;100498.47;5033403;28;20049;-70
2021/08/28 01:47:35;;;;;;;4.45;2.40;;;;;;;14.94;100.00;100489.22;5019736;28;20102;-70
2021/08/28 01:50:21;;;;;;;2.50;2.00;;;;;;;14.92;100.00;100491.25;5033342;28;20055;-71
2021/08/28 01:53:07;;;;;;;3.15;1.80;;;;;;;14.90;100.00;100493.25;5033158;28;20075;-71
2021/08/28 01:55:51;;;;;;;4.95;2.30;;;;;;;14.90;100.00;100495.94;5033547;28;20100;-71
2021/08/28 01:58:34;;;;;;;2.55;2.28;;;;;;;14.89;100.00;100502.31;5033437;28;20096;-70
2021/08/28 02:01:18;;;;;;;5.10;2.80;;;;;;;14.86;100.00;100498.13;5033411;28;20135;-71
2021/08/28 02:04:02;;;;;;;4.15;2.70;;;;;;;14.82;100.00;100506.66;5033942;28;20130;-70
2021/08/28 02:06:52;;;;;;;5.63;2.47;;;;;;;14.80;100.00;100508.69;5019388;28;20549;-70
2021/08/28 02:09:52;;;;;;;7.45;2.67;;;;;;;14.77;100.00;100504.47;5034430;28;20048;-70
2021/08/28 02:12:39;;;;;;;5.30;2.30;;;;;;;14.78;100.00;100506.16;5018939;28;20474;-70
2021/08/28 02:15:30;;;;;;;3.15;2.60;;;;;;;14.82;100.00;100503.97;5019259;28;20075;-71
2021/08/28 02:18:20;;;;;;;3.40;2.42;;;;;;;14.86;100.00;100508.00;5033052;28;20056;-71
2021/08/28 02:21:06;;;;;;;4.85;2.45;;;;;;;14.83;100.00;100503.81;5033057;28;20079;-70
2021/08/28 02:24:05;;;;;;;7.40;2.85;;;;;;;14.99;100.00;100498.47;5032744;28;20079;-71
2021/08/28 02:26:55;;;;;;;4.65;3.00;;;;;;;14.93;100.00;100498.28;5032725;28;20128;-70
2021/08/28 02:29:44;;;;;;;4.30;2.83;;;;;;;14.98;100.00;100496.78;5033000;28;20473;-70
2021/08/28 02:32:30;;;;;;;4.75;2.70;;;;;;;14.89;100.00;100497.78;5032975;28;20133;-70
2021/08/28 02:35:15;;;;;;;3.75;2.50;;;;;;;14.87;100.00;100504.31;5019005;28;20079;-71
2021/08/28 02:37:59;;;;;;;3.30;2.47;;;;;;;14.87;100.00;100498.94;5018750;28;20091;-70
2021/08/28 02:40:46;;;;;;;2.95;2.42;;;;;;;14.86;100.00;100498.13;5018443;28;20044;-70
2021/08/28 02:43:30;;;;;;;4.53;2.45;;;;;;;14.85;100.00;100495.59;5032343;28;20164;-71
2021/08/28 02:46:15;;;;;;;5.28;2.72;;;;;;;14.87;100.00;100493.56;5032654;28;20056;-70
2021/08/28 02:49:00;;;;;;;6.25;2.95;;;;;;;14.84;100.00;100488.53;5032298;28;20091;-71
2021/08/28 02:51:44;;;;;;;4.38;2.83;;;;;;;14.82;100.00;100486.03;5031754;28;20048;-71
2021/08/28 02:54:29;;;;;;;4.93;3.42;;;;;;;14.79;100.00;100488.22;5032225;28;20072;-70
2021/08/28 02:57:13;;;;;;;5.43;3.17;;;;;;;14.81;100.00;100483.50;5018264;28;20426;-71
2021/08/28 02:59:57;;;;;;;5.95;3.20;;;;;;;14.79;100.00;100485.53;5032433;28;20036;-70
2021/08/28 03:02:42;;;;;;;3.85;3.28;;;;;;;14.77;100.00;100474.94;5032381;28;20566;-71
2021/08/28 03:05:26;;;;;;;5.88;3.33;;;;;;;14.76;100.00;100469.75;5033054;28;20518;-70
2021/08/28 03:08:12;;;;;;;5.78;3.70;;;;;;;14.73;100.00;100480.81;5018442;28;20048;-70
2021/08/28 03:10:56;;;;;;;6.35;3.63;;;;;;;14.70;100.00;100471.25;5018403;28;20064;-70
2021/08/28 03:13:40;;;;;;;4.78;3.60;;;;;;;14.68;100.00;100472.44;5018068;28;20072;-71
2021/08/28 03:16:26;;;;;;;6.93;3.47;;;;;;;14.65;100.00;100475.44;5018391;28;20116;-70
2021/08/28 03:19:10;;;;;;;5.93;3.60;;;;;;;14.76;100.00;100477.78;5018064;28;20471;-71
2021/08/28 03:21:56;;;;;;;6.07;3.53;;;;;;;14.71;100.00;100477.47;5032174;28;20088;-71
2021/08/28 03:24:41;;;;;;;4.85;3.55;;;;;;;14.71;100.00;100478.28;5031953;28;20427;-71
2021/08/28 03:27:25;;;;;;;6.13;4.10;;;;;;;14.64;100.00;100476.44;5018638;28;20052;-68
2021/08/28 03:30:12;;;;;;;3.97;3.47;;;;;;;14.63;100.00;100477.44;5018237;28;20506;-70
2021/08/28 03:32:56;;;;;;;11.18;4.28;;;;;;;14.66;100.00;100477.09;5033082;28;20103;-70
2021/08/28 03:35:41;;;;;;;6.55;3.70;;;;;;;14.68;100.00;100480.50;5031824;28;20546;-68
2021/08/28 03:38:27;;;;;;;5.40;3.95;;;;;;;14.60;100.00;100486.66;5031887;28;20103;-70
2021/08/28 03:41:11;;;;;;;4.93;3.65;;;;;;;14.57;100.00;100488.84;5032458;28;20188;-70
2021/08/28 03:43:55;;;;;;;6.05;3.67;;;;;;;14.51;100.00;100489.50;5033145;28;20541;-68
2021/08/28 03:46:39;;;;;;;7.53;3.90;;;;;;;14.51;100.00;100489.50;5033047;28;20583;-70
2021/08/28 03:49:23;;;;;;;3.97;3.55;;;;;;;14.53;100.00;100484.81;5018328;28;20129;-70
2021/08/28 03:52:07;;;;;;;3.80;3.50;;;;;;;14.55;100.00;100488.16;5031740;28;20095;-70
2021/08/28 03:54:51;;;;;;;8.93;4.40;;;;;;;14.52;100.00;100489.34;5031987;28;20091;-70
2021/08/28 03:57:34;;;;;;;4.82;3.40;;;;;;;14.56;100.00;100497.88;5017677;28;20051;-70
2021/08/28 04:00:18;;;;;;;6.40;4.05;;;;;;;14.57;100.00;100494.22;5031878;28;20134;-69
2021/08/28 04:03:02;;;;;;;7.25;4.22;;;;;;;14.58;100.00;100498.56;5031985;28;20072;-71
2021/08/28 04:05:46;;;;;;;4.40;3.72;;;;;;;14.61;100.00;100501.75;5035658;28;20148;-70
2021/08/28 04:08:30;;;;;;;5.75;3.92;;;;;;;14.59;100.00;100494.88;5035580;28;20095;-70
2021/08/28 04:11:15;;;;;;;5.07;3.70;;;;;;;14.61;100.00;100496.38;5036253;28;20473;-70
2021/08/28 04:13:59;;;;;;;5.65;3.58;;;;;;;14.64;100.00;100497.91;5035125;28;20072;-70
2021/08/28 04:16:43;;;;;;;4.43;3.60;;;;;;;14.64;100.00;100503.25;5035442;28;20048;-70
2021/08/28 04:19:27;;;;;;;4.57;4.15;;;;;;;14.67;100.00;100494.91;5021300;28;20095;-70
2021/08/28 04:22:11;;;;;;;4.65;3.75;;;;;;;14.70;100.00;100498.06;5035040;28;20115;-70
2021/08/28 04:24:55;;;;;;;5.32;3.97;;;;;;;14.74;100.00;100494.06;5035565;28;20087;-70
2021/08/28 04:27:39;;;;;;;6.88;3.95;;;;;;;14.74;100.00;100495.91;5036224;28;20059;-70
2021/08/28 04:30:23;;;;;;;11.05;4.05;;;;;;;14.74;100.00;100491.41;5021261;28;20184;-69
2021/08/28 04:33:07;;;;;;;6.38;4.05;;;;;;;14.77;100.00;100487.53;5036046;28;20072;-70
2021/08/28 04:35:51;;;;;;;5.35;4.22;;;;;;;14.72;100.00;100484.50;5035040;28;20144;-70
2021/08/28 04:38:35;;;;;;;4.43;3.25;;;;;;;14.74;100.00;100498.59;5020960;28;20080;-69
2021/08/28 04:41:19;;;;;;;6.97;4.43;;;;;;;14.73;100.00;100491.56;5034890;28;20052;-70
2021/08/28 04:44:04;;;;;;;6.00;4.15;;;;;;;14.76;100.00;100491.22;5034868;28;20430;-70
2021/08/28 04:46:48;;;;;;;6.50;4.32;;;;;;;14.77;100.00;100487.53;5034888;28;20047;-71
2021/08/28 04:49:32;;;;;;;;;;;;;;;14.71;100.00;100493.56;5035178;28;20131;-70
2021/08/28 04:52:16;;;;;;;4.78;3.53;;;;;;;14.68;100.00;100508.16;5034480;28;19982;-70
2021/08/28 04:54:59;;;;;;;7.57;3.70;;;;;;;14.69;100.00;100506.31;5034895;28;20056;-70
2021/08/28 04:57:43;;;;;;;5.53;4.05;;;;;;;14.70;100.00;100508.00;5034642;28;20091;-70
2021/08/28 05:00:28;;;;;;;5.25;3.85;;;;;;;14.71;100.00;100515.03;5034574;28;20137;-70
2021/08/28 05:03:12;;;;;;;4.30;3.58;;;;;;;14.73;100.00;100521.94;5035460;28;20051;-70
2021/08/28 05:05:56;;;;;;;6.75;4.13;;;;;;;14.74;100.00;100526.28;5034797;28;20056;-71
2021/08/28 05:08:39;;;;;;;7.82;4.78;;;;;;;14.75;100.00;100524.44;5034284;28;20072;-70
2021/08/28 05:11:23;;;;;;;7.85;4.45;;;;;;;14.84;100.00;100523.44;5034467;28;20068;-70
2021/08/28 05:14:07;;;;;;;8.32;4.85;;;;;;;14.81;100.00;100532.66;5058319;22;20047;-70
2021/08/28 05:16:51;;;;;;;5.45;4.57;;;;;;;14.83;100.00;100527.13;5094067;28;20093;-70
2021/08/28 05:19:35;;;;;;;5.70;4.18;;;;;;;14.84;100.00;100520.75;5079737;28;20043;-70
2021/08/28 05:22:19;;;;;;;7.07;4.53;;;;;;;14.85;100.00;100527.78;5094420;28;20076;-70
2021/08/28 05:25:03;;;;;;;7.50;4.82;;;;;;;14.87;100.00;100532.00;5093893;28;20102;-70
2021/08/28 05:27:48;;;;;;;6.05;4.32;;;;;;;14.87;100.00;100536.53;5094030;28;20074;-70
2021/08/28 05:30:31;;;;;;;7.32;4.22;;;;;;;14.89;100.00;100534.53;5095218;28;20129;-70
2021/08/28 05:33:15;;;;;;;5.43;4.10;;;;;;;14.90;100.00;100547.78;5095049;28;20046;-70
2021/08/28 05:35:59;;;;;;;5.97;4.30;;;;;;;14.95;100.00;100545.44;5093876;28;20131;-70
2021/08/28 05:38:43;;;;;;;6.40;4.40;;;;;;;15.11;100.00;100544.63;5093676;28;20047;-70
2021/08/28 05:41:27;;;;;;;4.90;4.35;;;;;;;15.12;100.00;100547.13;5093980;28;20054;-70
2021/08/28 05:44:11;;;;;;;7.47;4.50;;;;;;;15.24;100.00;100547.66;5094760;28;20126;-70
2021/08/28 05:46:55;;;;;;;8.10;4.43;;;;;;;15.29;100.00;100538.09;5093573;28;20414;-70
2021/08/28 05:49:39;;;;;;;5.28;4.40;;;;;;;15.45;100.00;100537.28;5094142;28;20047;-69
2021/08/28 05:52:23;;;;;;;6.10;4.35;;;;;;;15.48;100.00;100542.31;5093519;28;20066;-70
2021/08/28 05:55:10;;;;;;;5.32;4.32;;;;;;;15.63;100.00;100551.38;5093589;28;20445;-69
2021/08/28 05:57:54;;;;;;;8.40;4.95;;;;;;;15.56;100.00;100550.38;5093894;28;20082;-69
2021/08/28 06:00:38;;;;;;;5.03;4.50;;;;;;;15.59;100.00;100542.81;5094588;28;20460;-70
2021/08/28 06:03:22;;;;;;;8.20;4.43;;;;;;;15.62;100.00;100552.38;5094247;28;20055;-70
2021/08/28 06:06:06;;;;;;;7.10;4.20;;;;;;;15.66;100.00;100541.94;5094497;28;20054;-70
2021/08/28 06:08:49;;;;;;;8.07;4.50;;;;;;;15.74;100.00;100547.31;5094239;28;20402;-69
2021/08/28 06:11:33;;;;;;;5.97;4.20;;;;;;;15.88;100.00;100535.03;5079063;28;20069;-70
2021/08/28 06:14:17;;;;;;;5.53;4.13;;;;;;;15.98;100.00;100552.66;5093099;28;20055;-70
2021/08/28 06:17:01;;;;;;;5.60;4.35;;;;;;;16.04;100.00;100551.13;5093280;28;20097;-70
2021/08/28 06:19:45;;;;;;;5.53;4.60;;;;;;;16.14;100.00;100541.00;5092912;28;20050;-70
2021/08/28 06:22:29;;;;;;;8.23;5.03;;;;;;;16.26;100.00;100547.72;5093981;28;20513;-70
2021/08/28 06:25:13;;;;;;;5.22;4.10;;;;;;;16.30;100.00;100544.50;5093251;28;20043;-70
2021/08/28 06:27:57;;;;;;;7.68;4.47;;;;;;;16.35;100.00;100544.81;5093056;28;20114;-70
2021/08/28 06:30:42;;;;;;;7.90;4.78;;;;;;;16.48;100.00;100550.50;5093139;28;20050;-70
2021/08/28 06:33:26;;;;;;;4.47;4.00;;;;;;;16.60;100.00;100549.09;5093228;28;20105;-69
2021/08/28 06:36:10;;;;;;;5.03;4.43;;;;;;;16.73;100.00;100554.75;5078759;28;20101;-70
2021/08/28 06:38:54;;;;;;;5.00;4.50;;;;;;;16.84;100.00;100548.97;5092769;28;20082;-69
2021/08/28 06:41:38;;;;;;;5.38;4.30;;;;;;;16.87;99.91;100561.25;5092973;28;20122;-70
2021/08/28 06:44:23;;;;;;;7.07;4.65;;;;;;;17.00;100.00;100551.53;5092797;28;20046;-70
2021/08/28 06:47:07;;;;;;;7.07;4.45;;;;;;;17.01;100.00;100555.09;5092887;28;20528;-70
2021/08/28 06:49:51;;;;;;;10.20;4.95;;;;;;;16.91;99.77;100557.16;5093527;28;20059;-70
2021/08/28 06:52:35;;;;;;;5.32;4.53;;;;;;;17.04;100.00;100560.09;5093786;28;20509;-68
2021/08/28 06:55:19;;;;;;;9.30;4.80;;;;;;;17.20;100.00;100552.75;5092816;28;20505;-70
2021/08/28 06:58:02;;;;;;;8.10;4.75;;;;;;;17.43;95.92;100556.34;5092373;28;20055;-70
2021/08/28 07:00:46;;;;;;;;;;;;;;;17.63;94.58;100551.25;5093968;28;20101;-70
2021/08/28 07:03:30;;;;;;;5.88;5.07;;;;;;;17.91;92.13;100553.16;5092117;28;20438;-69
2021/08/28 07:06:15;;;;;;;8.38;4.72;;;;;;;18.17;91.43;100542.78;5092382;28;20169;-70
2021/08/28 07:08:59;;;;;;;6.85;5.22;;;;;;;18.40;88.28;100548.94;5092004;28;20050;-70
2021/08/28 07:11:43;;;;;;;6.45;5.22;;;;;;;18.47;85.40;100555.28;5078116;28;20066;-70
2021/08/28 07:14:27;;;;;;;5.63;5.00;;;;;;;18.44;82.84;100551.06;5077670;28;20135;-69
2021/08/28 07:17:11;;;;;;;10.20;6.15;;;;;;;18.37;82.58;100549.31;5092250;28;20611;-70
2021/08/28 07:19:55;;;;;;;8.73;5.10;;;;;;;18.23;83.96;100542.00;5092937;28;20061;-70
2021/08/28 07:22:38;;;;;;;6.60;5.00;;;;;;;18.10;85.97;100541.84;5091963;28;20124;-70
2021/08/28 07:25:22;;;;;;;7.47;4.90;;;;;;;17.93;88.02;100540.31;5092065;28;20090;-67
2021/08/28 07:28:08;;;;;;;7.20;5.85;;;;;;;17.72;88.41;100536.69;5078187;28;20119;-70
2021/08/28 07:30:52;;;;;;;7.55;5.40;;;;;;;17.60;90.19;100538.97;5092149;28;20051;-70
2021/08/28 07:33:36;;;;;;;6.85;5.47;;;;;;;17.54;92.75;100538.88;5077515;28;20066;-71
2021/08/28 07:36:20;;;;;;;7.22;5.57;;;;;;;17.57;95.69;100541.19;5077929;28;20398;-70
2021/08/28 07:39:04;;;;;;;8.43;5.35;;;;;;;17.60;93.66;100540.84;5080014;28;20450;-70
2021/08/28 07:41:48;;;;;;;8.63;5.50;;;;;;;17.57;94.38;100539.34;5082090;28;20513;-70
2021/08/28 07:44:32;;;;;;;6.35;5.38;;;;;;;17.61;92.46;100535.25;5096805;28;20089;-70
2021/08/28 07:47:16;;;;;;;6.40;5.55;;;;;;;17.60;95.57;100528.19;5096130;28;20505;-70
2021/08/28 07:50:00;;;;;;;5.68;5.18;;;;;;;17.63;95.71;100525.16;5081782;28;20039;-70
2021/08/28 07:52:45;;;;;;;7.07;5.20;;;;;;;17.85;94.21;100515.31;5095988;28;20046;-70
2021/08/28 07:55:29;;;;;;;7.07;5.55;;;;;;;18.03;93.81;100522.00;5095930;28;20136;-71
2021/08/28 07:58:13;;;;;;;7.18;5.40;;;;;;;18.04;94.43;100514.75;5095526;28;20050;-70
2021/08/28 08:00:56;;;;;;;6.53;5.60;;;;;;;17.96;92.78;100531.03;5095842;28;20047;-70
2021/08/28 08:03:40;;;;;;;8.07;5.63;;;;;;;18.04;92.60;100531.81;5095647;28;20173;-71
2021/08/28 08:06:24;;;;;;;9.65;6.35;;;;;;;18.14;94.54;100524.25;5096742;28;20047;-70
2021/08/28 08:09:08;;;;;;;5.20;4.70;;;;;;;18.21;89.71;100532.44;5081387;28;20089;-70
2021/08/28 08:11:52;;;;;;;7.50;5.38;;;;;;;18.41;88.70;100539.81;5081431;28;20085;-70
2021/08/28 08:14:36;;;;;;;7.78;5.93;;;;;;;18.60;87.09;100544.63;5081051;28;20046;-69
2021/08/28 08:17:20;;;;;;;8.18;5.60;;;;;;;18.89;84.53;100541.88;5095379;28;20121;-70
2021/08/28 08:20:04;;;;;;;11.63;5.90;;;;;;;19.48;82.11;100546.03;5095518;28;20097;-70
2021/08/28 08:22:48;;;;;;;8.05;5.07;;;;;;;20.06;78.47;100545.69;5095481;28;20492;-70
2021/08/28 08:25:32;;;;;;;6.78;4.97;;;;;;;20.26;74.19;100543.94;5095411;28;20050;-71
2021/08/28 08:28:16;;;;;;;6.13;4.45;;;;;;;20.23;75.24;100542.44;5096042;28;20101;-70
2021/08/28 08:30:59;;;;;;;5.65;4.50;;;;;;;19.97;74.43;100541.41;5080965;28;20070;-70
2021/08/28 08:33:43;;;;;;;;;;;;;;;19.77;74.98;100540.44;5095421;28;20074;-71
2021/08/28 08:36:27;;;;;;;6.37;4.13;;;;;;;19.67;76.03;100548.91;5095206;28;19918;-71
2021/08/28 08:39:11;;;;;;;6.70;4.68;;;;;;;19.58;77.11;100552.78;5094967;28;20402;-70
2021/08/28 08:41:56;;;;;;;5.38;4.60;;;;;;;19.54;76.90;100550.66;5094981;28;20075;-70
2021/08/28 08:44:41;;;;;;;5.35;4.63;;;;;;;19.45;76.76;100543.72;5094898;28;20101;-70
2021/08/28 08:47:26;;;;;;;5.13;4.63;;;;;;;19.41;78.46;100551.38;5094638;28;20046;-69
2021/08/28 08:50:11;;;;;;;6.43;4.60;;;;;;;19.28;79.50;100553.13;5093238;28;20092;-70
2021/08/28 08:53:00;;;;;;;6.75;4.93;;;;;;;19.05;79.26;100555.13;5094692;28;20104;-71
2021/08/28 08:55:44;;;;;;;8.35;5.13;;;;;;;18.95;81.72;100560.00;5095657;28;20050;-70
2021/08/28 08:58:28;;;;;;;5.82;4.75;;;;;;;18.81;83.65;100550.06;5094342;28;20046;-69
2021/08/28 09:01:12;;;;;;;7.03;5.57;;;;;;;18.66;85.25;100555.50;5094380;28;20132;-70
2021/08/28 09:03:56;;;;;;;5.43;4.57;;;;;;;18.60;86.84;100558.13;5094238;28;20554;-70
2021/08/28 09:06:45;;;;;;;8.07;5.45;;;;;;;18.50;90.65;100562.97;5094500;28;20402;-71
2021/08/28 09:09:29;;;;;;;7.43;5.70;;;;;;;18.34;95.16;100559.66;5094821;28;20079;-70
2021/08/28 09:12:13;;;;;;;6.95;5.78;;;;;;;18.12;100.00;100565.94;5094467;28;20097;-68
2021/08/28 09:14:59;;;;;;;7.30;5.30;;;;;;;17.77;100.00;100567.47;5095185;28;20105;-70
2021/08/28 09:17:45;;;;;;;6.95;6.10;;;;;;;17.54;100.00;100577.47;5094092;28;20051;-70
2021/08/28 09:20:29;;;;;;;10.70;6.40;;;;;;;17.30;100.00;100569.50;5094245;28;20081;-70
2021/08/28 09:23:15;;;;;;;9.63;6.22;;;;;;;17.13;100.00;100578.75;5094073;28;20483;-69
2021/08/28 09:25:59;;;;;;;6.18;5.43;;;;;;;17.07;100.00;100574.06;5079979;28;20101;-69
2021/08/28 09:28:52;;;;;;;9.38;6.95;;;;;;;17.01;100.00;100571.25;5094339;28;20398;-70
2021/08/28 09:31:49;;;;;;;8.30;6.33;;;;;;;16.96;100.00;100571.78;5079493;28;20047;-71
2021/08/28 09:34:33;;;;;;;6.80;6.00;;;;;;;16.84;100.00;100570.50;5079497;28;20127;-70
2021/08/28 09:37:17;;;;;;;8.63;6.47;;;;;;;16.73;100.00;100570.91;5094708;28;20043;-68
2021/08/28 09:40:04;;;;;;;8.55;6.55;;;;;;;16.74;100.00;100577.13;5079544;28;20092;-70
2021/08/28 09:42:53;;;;;;;7.57;5.93;;;;;;;16.78;100.00;100578.47;5093831;28;20097;-70
2021/08/28 09:45:37;;;;;;;8.30;6.65;;;;;;;16.87;100.00;100572.03;5079493;28;20500;-70
2021/08/28 09:48:27;;;;;;;9.93;6.95;;;;;;;17.02;100.00;100581.84;5079428;28;20051;-70
2021/08/28 09:51:11;;;;;;;9.35;7.50;;;;;;;17.15;100.00;100586.63;5093661;28;20059;-70
2021/08/28 09:54:02;;;;;;;6.78;6.07;;;;;;;17.32;100.00;100588.22;5094267;28;20093;-70
2021/08/28 09:56:59;;;;;;;12.68;6.93;;;;;;;17.51;100.00;100583.19;5093420;28;20063;-70
2021/08/28 09:59:44;;;;;;;7.85;6.47;;;;;;;17.64;100.00;100588.84;5093479;28;20160;-70
2021/08/28 10:02:28;;;;;;;7.88;6.15;;;;;;;17.75;100.00;100585.69;5078543;28;20051;-71
2021/08/28 10:05:12;;;;;;;7.30;6.53;;;;;;;17.79;100.00;100586.19;5079022;28;20079;-70
2021/08/28 10:07:58;;;;;;;10.15;6.68;;;;;;;17.83;100.00;100588.28;5093097;28;20055;-71
2021/08/28 10:10:43;;;;;;;7.68;6.35;;;;;;;17.90;100.00;100594.66;5078916;28;20101;-70
2021/08/28 10:13:27;;;;;;;12.70;6.78;;;;;;;17.82;100.00;100586.63;5092884;28;20082;-70
2021/08/28 10:16:11;;;;;;;8.20;7.00;;;;;;;17.74;100.00;100581.34;5093078;28;20047;-70
2021/08/28 10:18:55;;;;;;;10.48;6.75;;;;;;;17.78;100.00;100579.09;5078789;28;20096;-68
2021/08/28 10:21:39;;;;;;;8.70;6.50;;;;;;;17.93;100.00;100578.09;5078694;28;20100;-70
2021/08/28 10:24:24;;;;;;;7.97;6.00;;;;;;;17.82;100.00;100575.03;5092738;28;20054;-70
2021/08/28 10:27:08;;;;;;;7.55;6.82;;;;;;;17.59;100.00;100580.44;5093005;28;20097;-70
2021/08/28 10:29:53;;;;;;;8.45;6.63;;;;;;;17.49;100.00;100579.03;5078485;28;20525;-70
2021/08/28 10:32:39;;;;;;;10.85;5.43;;;;;;;17.43;100.00;100583.28;5078223;28;20047;-70
2021/08/28 10:35:23;;;;;;;11.13;6.82;;;;;;;17.49;100.00;100579.84;5078804;28;20101;-70
2021/08/28 10:38:07;;;;;;;7.47;6.35;;;;;;;17.50;100.00;100584.22;5078377;28;20046;-70
2021/08/28 10:40:53;;;;;;;6.35;5.68;;;;;;;17.34;100.00;100581.63;5092745;28;20146;-69
2021/08/28 10:43:38;;;;;;;7.75;6.03;;;;;;;17.33;100.00;100574.56;5078243;28;20055;-70
2021/08/28 10:46:28;;;;;;;7.70;6.07;;;;;;;17.18;100.00;100587.13;5078593;28;20054;-70
2021/08/28 10:49:12;;;;;;;6.55;5.82;;;;;;;17.21;100.00;100583.25;5092681;28;20465;-70
2021/08/28 10:51:56;;;;;;;6.82;5.18;;;;;;;16.98;100.00;100585.09;5092306;28;20566;-70
2021/08/28 10:54:41;;;;;;;6.32;5.15;;;;;;;16.83;100.00;100578.75;5092871;28;20566;-67
2021/08/28 10:57:27;;;;;;;6.72;5.78;;;;;;;16.82;100.00;100583.31;5092145;28;20185;-68
2021/08/28 11:00:16;;;;;;;5.90;4.93;;;;;;;16.72;100.00;100573.75;5092240;28;20051;-69
2021/08/28 11:03:00;;;;;;;6.50;5.65;;;;;;;16.82;100.00;100580.63;5092196;28;20089;-70
2021/08/28 11:05:44;;;;;;;6.55;4.68;;;;;;;17.08;100.00;100577.59;5092160;28;20046;-69
2021/08/28 11:08:47;;;;;;;5.15;4.65;;;;;;;17.36;100.00;100585.00;5092037;28;20051;-69
2021/08/28 11:11:37;;;;;;;5.97;4.30;;;;;;;17.68;100.00;100573.09;5078140;28;20043;-70
2021/08/28 11:14:43;;;;;;;6.93;4.35;;;;;;;17.94;100.00;100568.16;5093532;28;20223;-71
2021/08/28 11:17:37;;;;;;;4.70;3.95;;;;;;;18.14;100.00;100569.28;5092357;28;20047;-70
2021/08/28 11:20:31;;;;;;;7.80;4.57;;;;;;;18.26;100.00;100568.66;5077979;28;20134;-70
2021/08/28 11:23:17;;;;;;;5.20;3.60;;;;;;;18.52;100.00;100569.03;5077784;28;20078;-70
2021/08/28 11:26:01;;;;;;;5.43;3.75;;;;;;;18.78;98.33;100569.38;5091995;28;20129;-70
2021/08/28 11:28:45;;;;;;;6.60;4.43;;;;;;;19.19;97.84;100570.50;5077932;28;20043;-71
2021/08/28 11:31:44;;;;;;;5.93;3.63;;;;;;;19.27;92.97;100567.69;5093429;28;20531;-70
2021/08/28 11:34:29;;;;;;;5.30;3.90;;;;;;;19.74;93.07;100567.88;5092151;28;20044;-70
2021/08/28 11:37:31;;;;;;;4.60;3.80;;;;;;;20.16;87.28;100565.09;5093173;28;20070;-70
2021/08/28 11:40:24;;;;;;;6.22;4.07;;;;;;;20.23;80.02;100560.59;5092074;28;20087;-70
2021/08/28 11:43:09;;;;;;;4.82;3.70;;;;;;;20.37;83.55;100570.44;5078037;28;20043;-70
2021/08/28 11:46:00;;;;;;;5.57;3.47;;;;;;;20.06;82.60;100568.19;5092086;28;20086;-70
2021/08/28 11:48:46;;;;;;;5.03;3.40;;;;;;;20.10;85.49;100569.44;5091804;28;20517;-70
2021/08/28 11:51:31;;;;;;;5.38;3.28;;;;;;;19.81;83.15;100568.78;5091752;28;20093;-70
2021/08/28 11:54:18;;;;;;;3.90;3.17;;;;;;;19.95;83.18;100568.69;5091761;28;20050;-70
2021/08/28 11:57:02;;;;;;;5.85;3.30;;;;;;;19.78;84.22;100558.38;5091655;28;20541;-70
2021/08/28 11:59:46;;;;;;;3.78;3.47;;;;;;;19.78;87.68;100563.78;5091502;28;20051;-70
2021/08/28 12:02:30;;;;;;;4.30;3.63;;;;;;;19.70;84.76;100578.25;5077666;28;20093;-70
2021/08/28 12:05:16;;;;;;;4.03;3.00;;;;;;;19.52;83.84;100568.94;5091902;28;20134;-68
2021/08/28 12:08:01;;;;;;;3.42;3.13;;;;;;;19.52;84.95;100579.75;5077833;28;20047;-68
2021/08/28 12:10:45;;;;;;;5.68;3.60;;;;;;;19.60;88.31;100571.53;5091815;28;20555;-69
2021/08/28 12:13:47;;;;;;;7.13;3.17;;;;;;;19.29;89.15;100571.03;5091315;28;20090;-70
2021/08/28 12:16:37;;;;;;;3.28;2.97;;;;;;;19.31;85.12;100572.47;5091983;28;20532;-69
2021/08/28 12:19:27;;;;;;;3.92;3.35;;;;;;;19.32;85.29;100576.03;5091612;28;20047;-69
2021/08/28 12:22:11;;;;;;;3.85;3.20;;;;;;;19.15;88.13;100582.66;5077161;28;20504;-69
2021/08/28 12:24:55;;;;;;;5.55;3.97;;;;;;;19.21;90.19;100580.06;5093361;28;20097;-70
2021/08/28 12:27:38;;;;;;;4.55;3.15;;;;;;;18.86;86.57;100580.91;5081238;28;20043;-70
2021/08/28 12:30:23;;;;;;;4.95;3.80;;;;;;;18.83;88.46;100588.53;5095012;28;20043;-69
2021/08/28 12:33:11;;;;;;;3.83;3.42;;;;;;;18.63;90.46;100582.06;5080861;28;20473;-70
2021/08/28 12:35:55;;;;;;;3.35;3.05;;;;;;;18.62;92.79;100588.47;5094877;28;20055;-69
2021/08/28 12:38:39;;;;;;;3.60;3.30;;;;;;;18.63;91.91;100584.75;5096025;28;20133;-70
2021/08/28 12:41:23;;;;;;;;;;;;;;;18.56;93.89;100578.44;5096191;28;20521;-70